Time;durP1;ratioP1;P1;durP2;ratioP2;P2;SDS_P1;SDS_P2;PMS_P1;PMS_P2;Temp;Humidity;BMP_temperature;BMP_pressure;BME280_temperature;BME280_humidity;BME280_pressure;Samples;Min_cycle;Max_cycle;Signal;HPM_P1;HPM_P2
2021/07/23 00:01:58;;;;;;;18.23;16.33;;;27.40;53.70;;;;;;4773789;55;21105;-27
2021/07/23 00:06:58;;;;;;;17.62;15.52;;;27.40;53.70;;;;;;4737819;59;21061;-25
2021/07/23 00:11:59;;;;;;;16.60;14.90;;;27.40;53.80;;;;;;4738113;59;21006;-26
2021/07/23 00:17:00;;;;;;;17.12;15.43;;;27.40;53.70;;;;;;4764190;55;21508;-27
2021/07/23 00:22:01;;;;;;;17.15;15.52;;;27.40;53.60;;;;;;4772194;55;21010;-26
2021/07/23 00:27:02;;;;;;;16.85;15.15;;;27.40;54.10;;;;;;4738163;59;21045;-27
2021/07/23 00:32:03;;;;;;;16.48;14.87;;;27.40;53.90;;;;;;4757026;55;21050;-27
2021/07/23 00:37:04;;;;;;;15.35;13.85;;;27.40;53.80;;;;;;4745868;55;21001;-29
2021/07/23 00:42:04;;;;;;;15.95;14.35;;;27.40;53.90;;;;;;4741531;55;21002;-31
2021/07/23 00:47:07;;;;;;;15.60;14.10;;;27.40;53.80;;;;;;4737401;59;21050;-30
2021/07/23 00:52:08;;;;;;;15.48;13.98;;;27.40;53.70;;;;;;4738258;55;21524;-29
2021/07/23 00:57:09;;;;;;;16.48;14.87;;;27.40;53.80;;;;;;4745585;55;21053;-29
2021/07/23 01:02:10;;;;;;;16.10;14.50;;;27.40;53.80;;;;;;4751223;55;21005;-27
2021/07/23 01:07:15;;;;;;;16.08;14.48;;;27.40;53.60;;;;;;4771067;55;21014;-26
2021/07/23 01:12:17;;;;;;;16.12;14.45;;;27.40;53.90;;;;;;4738510;59;21074;-28
2021/07/23 01:17:18;;;;;;;16.52;14.30;;;27.40;53.80;;;;;;4738070;59;20990;-28
2021/07/23 01:22:23;;;;;;;15.27;13.77;;;27.40;54.00;;;;;;4738207;59;21022;-30
2021/07/23 01:27:29;;;;;;;15.70;14.10;;;27.40;53.80;;;;;;4757882;55;21066;-29
2021/07/23 01:32:29;;;;;;;14.87;13.45;;;27.40;53.60;;;;;;4750974;55;21066;-30
2021/07/23 01:37:31;;;;;;;14.50;13.10;;;27.40;53.80;;;;;;4738002;59;21568;-31
2021/07/23 01:42:33;;;;;;;14.35;12.95;;;27.40;53.80;;;;;;4776459;55;21502;-18
2021/07/23 01:47:35;;;;;;;14.48;13.18;;;27.40;53.60;;;;;;4749120;55;21109;-25
2021/07/23 01:52:35;;;;;;;14.93;13.52;;;27.40;53.50;;;;;;4763923;55;21015;-27
2021/07/23 01:57:36;;;;;;;14.85;13.30;;;27.40;53.80;;;;;;4748865;55;21025;-28
2021/07/23 02:02:37;;;;;;;14.10;12.70;;;27.40;53.80;;;;;;4755066;55;20990;-28
2021/07/23 02:07:38;;;;;;;14.40;13.02;;;27.40;53.60;;;;;;4749263;55;21006;-27
2021/07/23 02:12:39;;;;;;;14.48;13.10;;;27.40;53.60;;;;;;4742202;55;20998;-27
2021/07/23 02:17:42;;;;;;;14.20;12.85;;;27.40;54.30;;;;;;4747763;55;21002;-25
2021/07/23 02:22:43;;;;;;;14.25;12.93;;;27.40;53.80;;;;;;4770521;55;21002;-28
2021/07/23 02:27:44;;;;;;;14.13;12.63;;;27.40;53.50;;;;;;4738156;55;21026;-24
2021/07/23 02:32:45;;;;;;;13.73;12.43;;;27.40;53.80;;;;;;4738533;59;20982;-30
2021/07/23 02:37:45;;;;;;;13.43;12.13;;;27.40;53.70;;;;;;4751659;55;21022;-25
2021/07/23 02:42:46;;;;;;;13.73;12.43;;;27.40;53.60;;;;;;4813154;55;21025;-26
2021/07/23 02:47:48;;;;;;;13.15;11.85;;;27.40;53.50;;;;;;4749703;55;21473;-28
2021/07/23 02:52:49;;;;;;;12.55;11.35;;;27.40;53.80;;;;;;4771579;55;21180;-27
2021/07/23 02:57:50;;;;;;;13.13;11.90;;;27.40;53.60;;;;;;4739941;55;21021;-29
2021/07/23 03:02:51;;;;;;;13.50;12.20;;;27.40;53.50;;;;;;4748578;55;21548;-24
2021/07/23 03:07:55;;;;;;;13.15;11.85;;;27.40;53.60;;;;;;4761440;55;21508;-27
2021/07/23 03:12:55;;;;;;;12.93;11.65;;;27.40;53.70;;;;;;4756844;55;20994;-31
2021/07/23 03:17:56;;;;;;;13.40;12.05;;;27.40;53.60;;;;;;4745572;55;21029;-29
2021/07/23 03:22:57;;;;;;;13.62;12.32;;;27.40;53.60;;;;;;4772011;55;21038;-22
2021/07/23 03:27:58;;;;;;;12.18;11.07;;;27.40;53.60;;;;;;4746150;55;21524;-29
2021/07/23 03:32:59;;;;;;;12.13;10.90;;;27.40;53.60;;;;;;4739148;59;21003;-31
2021/07/23 03:38:02;;;;;;;12.40;11.20;;;27.40;53.80;;;;;;4747276;55;21054;-25
2021/07/23 03:43:02;;;;;;;12.20;11.10;;;27.30;53.40;;;;;;4744797;55;20998;-29
2021/07/23 03:48:04;;;;;;;11.82;10.68;;;27.40;53.60;;;;;;4766647;55;21599;-31
2021/07/23 03:53:05;;;;;;;12.35;10.90;;;27.40;53.60;;;;;;4743603;55;21126;-28
2021/07/23 03:58:06;;;;;;;12.57;11.38;;;27.40;53.60;;;;;;4740421;55;21038;-26
2021/07/23 04:03:06;;;;;;;11.93;10.73;;;27.40;53.50;;;;;;4746650;55;21047;-28
2021/07/23 04:08:07;;;;;;;11.80;10.70;;;27.40;53.50;;;;;;4737579;59;21093;-23
2021/07/23 04:13:08;;;;;;;12.20;10.90;;;27.30;53.40;;;;;;4738316;59;20994;-28
2021/07/23 04:18:12;;;;;;;11.68;10.50;;;27.30;53.40;;;;;;4794060;55;21040;-23
2021/07/23 04:23:12;;;;;;;11.95;10.65;;;27.30;53.30;;;;;;4737940;59;21058;-27
2021/07/23 04:28:13;;;;;;;11.93;10.45;;;27.30;53.30;;;;;;4741717;55;21002;-24
2021/07/23 04:33:14;;;;;;;11.85;10.63;;;27.30;53.20;;;;;;4744857;55;20998;-26
2021/07/23 04:38:15;;;;;;;10.80;9.80;;;27.30;53.20;;;;;;4738512;55;21077;-26
2021/07/23 04:43:15;;;;;;;11.63;10.52;;;27.30;53.30;;;;;;4738208;59;21022;-28
2021/07/23 04:48:16;;;;;;;11.05;10.05;;;27.30;53.10;;;;;;4745771;55;21074;-28
2021/07/23 04:53:17;;;;;;;11.48;10.38;;;27.30;53.20;;;;;;4741124;55;21578;-21
2021/07/23 04:58:18;;;;;;;11.18;10.07;;;27.30;53.10;;;;;;4738405;59;21002;-27
2021/07/23 05:03:20;;;;;;;11.55;9.98;;;27.30;53.10;;;;;;4745844;55;21006;-23
2021/07/23 05:08:21;;;;;;;11.18;10.10;;;27.30;52.90;;;;;;4736915;59;21078;-23
2021/07/23 05:13:24;;;;;;;11.55;10.05;;;27.20;53.00;;;;;;4746845;55;21576;-25
2021/07/23 05:18:27;;;;;;;11.00;9.90;;;27.30;53.00;;;;;;4748533;55;21096;-30
2021/07/23 05:23:28;;;;;;;11.75;10.55;;;27.30;53.00;;;;;;4765619;55;21029;-27
2021/07/23 05:28:29;;;;;;;10.80;9.75;;;27.20;53.00;;;;;;4790332;55;21487;-29
2021/07/23 05:33:31;;;;;;;10.30;9.40;;;27.30;53.00;;;;;;4746435;55;21002;-25
2021/07/23 05:38:32;;;;;;;11.38;10.27;;;27.20;52.80;;;;;;4739391;55;21066;-28
2021/07/23 05:43:33;;;;;;;10.90;9.90;;;27.20;52.90;;;;;;4748352;55;21074;-22
2021/07/23 05:48:38;;;;;;;11.57;10.30;;;27.20;52.90;;;;;;4763676;55;20998;-26
2021/07/23 05:53:39;;;;;;;11.57;9.98;;;27.20;52.90;;;;;;4757637;55;21014;-24
2021/07/23 05:58:42;;;;;;;10.77;9.77;;;27.20;52.90;;;;;;4738213;59;20990;-25
2021/07/23 06:03:43;;;;;;;11.38;9.75;;;27.20;52.90;;;;;;4755513;55;21881;-27
2021/07/23 06:08:44;;;;;;;10.68;9.57;;;27.20;52.80;;;;;;4750201;55;21462;-25
2021/07/23 06:13:45;;;;;;;12.13;10.93;;;27.20;52.90;;;;;;4750277;55;21006;-27
2021/07/23 06:18:45;;;;;;;11.20;10.10;;;27.20;52.90;;;;;;4760895;55;21040;-25
2021/07/23 06:23:46;;;;;;;11.12;10.02;;;27.20;52.90;;;;;;4738264;55;20994;-25
2021/07/23 06:28:47;;;;;;;11.02;9.93;;;27.20;52.90;;;;;;4737819;55;21018;-24
2021/07/23 06:33:48;;;;;;;11.45;10.32;;;27.20;52.90;;;;;;4762571;55;21001;-29
2021/07/23 06:38:49;;;;;;;11.55;10.43;;;27.20;52.90;;;;;;4741152;55;22259;-25
2021/07/23 06:43:50;;;;;;;11.02;9.98;;;27.20;52.90;;;;;;4739116;55;20970;-23
2021/07/23 06:48:51;;;;;;;11.82;10.63;;;27.20;52.90;;;;;;4758226;55;21066;-27
2021/07/23 06:53:52;;;;;;;12.02;10.82;;;27.20;52.90;;;;;;4781915;55;21580;-26
2021/07/23 06:58:54;;;;;;;11.70;10.50;;;27.20;52.90;;;;;;4746607;55;21054;-23
2021/07/23 07:03:55;;;;;;;12.65;11.38;;;27.20;53.00;;;;;;4750065;55;21496;-30
2021/07/23 07:08:55;;;;;;;51.70;30.05;;;27.20;53.00;;;;;;4750979;55;21061;-24
2021/07/23 07:13:56;;;;;;;40.55;25.77;;;27.20;51.60;;;;;;4756052;55;21069;-25
2021/07/23 07:18:57;;;;;;;35.28;24.98;;;27.00;50.40;;;;;;4762337;55;21013;-25
2021/07/23 07:24:00;;;;;;;35.85;24.20;;;27.00;50.40;;;;;;4737330;59;21006;-27
2021/07/23 07:29:00;;;;;;;37.35;23.52;;;27.00;50.50;;;;;;4743296;55;21543;-29
2021/07/23 07:34:01;;;;;;;34.70;20.83;;;27.00;50.60;;;;;;4758354;55;21061;-27
2021/07/23 07:39:04;;;;;;;46.72;26.17;;;27.00;50.50;;;;;;4758294;55;20992;-28
2021/07/23 07:44:05;;;;;;;45.35;25.83;;;27.00;50.90;;;;;;4738277;59;21010;-26
2021/07/23 07:49:06;;;;;;;37.33;23.00;;;27.00;50.70;;;;;;4758544;55;21639;-25
2021/07/23 07:54:07;;;;;;;30.62;21.33;;;27.00;50.70;;;;;;4755324;55;20994;-25
2021/07/23 07:59:08;;;;;;;27.80;21.33;;;27.00;50.90;;;;;;4737754;59;20990;-25
2021/07/23 08:04:09;;;;;;;30.37;20.73;;;27.10;51.10;;;;;;4797286;55;21525;-25
2021/07/23 08:09:12;;;;;;;56.85;44.20;;;27.20;51.70;;;;;;4776113;55;21009;-31
2021/07/23 08:14:12;;;;;;;75.60;55.63;;;27.10;50.80;;;;;;4747353;55;22243;-23
2021/07/23 08:19:14;;;;;;;62.78;41.17;;;27.20;51.00;;;;;;4762068;55;21017;-27
2021/07/23 08:24:14;;;;;;;69.78;47.65;;;27.10;50.90;;;;;;4774856;55;21006;-30
2021/07/23 08:29:15;;;;;;;45.42;33.75;;;27.20;50.90;;;;;;4749092;55;20978;-28
2021/07/23 08:34:16;;;;;;;43.85;33.42;;;27.10;50.70;;;;;;4756596;55;21356;-27
2021/07/23 08:39:17;;;;;;;48.00;35.50;;;27.20;50.70;;;;;;4765421;55;21481;-22
2021/07/23 08:44:18;;;;;;;48.13;36.17;;;27.20;50.80;;;;;;4747153;55;20998;-27
2021/07/23 08:49:19;;;;;;;50.00;37.15;;;27.20;51.00;;;;;;4749373;55;21440;-26
2021/07/23 08:54:20;;;;;;;55.90;38.85;;;27.30;51.10;;;;;;4735354;56;21101;-29
2021/07/23 08:59:21;;;;;;;51.50;37.05;;;27.30;51.20;;;;;;4751052;55;21532;-27
2021/07/23 09:04:34;;;;;;;49.80;34.38;;;27.30;52.30;;;;;;4736997;55;21017;-25
2021/07/23 09:09:35;;;;;;;46.40;34.58;;;27.40;51.90;;;;;;4771429;55;21500;-26
2021/07/23 09:14:36;;;;;;;47.33;35.88;;;27.40;51.90;;;;;;4737318;55;21010;-28
2021/07/23 09:19:40;;;;;;;47.38;35.00;;;27.40;51.80;;;;;;4766388;55;21006;-25
2021/07/23 09:24:55;;;;;;;44.40;35.50;;;27.40;51.90;;;;;;4754578;55;21054;-26
2021/07/23 09:29:57;;;;;;;43.72;34.20;;;27.40;51.80;;;;;;4737703;59;21002;-25
2021/07/23 09:35:09;;;;;;;44.50;35.13;;;27.40;51.90;;;;;;4754591;55;21523;-27
2021/07/23 09:40:11;;;;;;;40.90;34.22;;;27.40;51.80;;;;;;4739310;55;21078;-26
2021/07/23 09:45:12;;;;;;;35.55;29.27;;;27.50;52.00;;;;;;4748633;55;21095;-25
2021/07/23 09:50:14;;;;;;;44.65;34.35;;;27.50;51.80;;;;;;4746786;55;21018;-27
2021/07/23 09:55:15;;;;;;;46.10;36.15;;;27.50;51.70;;;;;;4776655;55;21049;-24
2021/07/23 10:00:22;;;;;;;50.53;41.00;;;27.50;51.80;;;;;;4774152;55;21627;-25
2021/07/23 10:05:30;;;;;;;65.50;45.95;;;27.60;51.90;;;;;;4737494;59;21497;-26
2021/07/23 10:10:32;;;;;;;58.58;41.13;;;27.60;51.80;;;;;;4754803;55;21468;-30
2021/07/23 10:15:35;;;;;;;56.65;43.10;;;27.60;51.60;;;;;;4746678;55;21014;-25
2021/07/23 10:20:39;;;;;;;56.47;41.15;;;27.60;51.50;;;;;;4778115;55;21504;-26
2021/07/23 10:25:41;;;;;;;51.67;37.92;;;27.70;52.30;;;;;;4762997;55;21089;-23
2021/07/23 10:30:42;;;;;;;49.78;37.28;;;27.70;51.40;;;;;;4749791;55;21025;-29
2021/07/23 10:35:43;;;;;;;41.80;31.65;;;27.70;51.30;;;;;;4755142;55;22144;-25
2021/07/23 10:40:44;;;;;;;32.70;27.17;;;27.70;51.20;;;;;;4751789;55;20990;-24
2021/07/23 10:45:45;;;;;;;40.35;28.33;;;27.70;51.00;;;;;;4755797;55;21026;-23
2021/07/23 10:50:48;;;;;;;32.22;27.52;;;27.70;51.10;;;;;;4757173;55;21026;-29
2021/07/23 10:55:49;;;;;;;43.00;30.30;;;27.70;51.30;;;;;;4751898;55;21484;-25
2021/07/23 11:01:02;;;;;;;50.05;33.95;;;27.70;51.60;;;;;;4755096;55;21034;-28
2021/07/23 11:06:20;;;;;;;59.08;35.22;;;27.80;51.90;;;;;;4749252;55;21485;-29
2021/07/23 11:11:25;;;;;;;49.33;32.92;;;27.80;51.50;;;;;;4753547;55;21016;-26
2021/07/23 11:16:29;;;;;;;49.13;32.45;;;27.80;51.50;;;;;;5048645;55;22177;-24
2021/07/23 11:21:40;;;;;;;47.80;31.30;;;27.80;51.50;;;;;;4769570;55;21536;-26
2021/07/23 11:27:02;;;;;;;40.03;31.20;;;27.80;51.50;;;;;;4749404;55;21058;-26
2021/07/23 11:32:07;;;;;;;42.58;30.15;;;27.80;51.60;;;;;;4753259;55;21350;-30
2021/07/23 11:37:26;;;;;;;42.88;31.42;;;27.80;51.60;;;;;;4765257;55;21006;-30
2021/07/23 11:42:30;;;;;;;45.15;31.12;;;27.80;51.60;;;;;;4737717;59;21038;-22
2021/07/23 11:47:39;;;;;;;43.67;31.50;;;27.80;51.60;;;;;;4746727;55;21564;-23
2021/07/23 11:52:40;;;;;;;41.72;30.40;;;27.80;51.70;;;;;;4748095;55;21006;-28
2021/07/23 11:57:46;;;;;;;40.88;30.05;;;27.80;51.70;;;;;;4745278;55;21029;-26
2021/07/23 12:02:48;;;;;;;39.50;29.02;;;27.80;52.20;;;;;;4790052;55;21097;-27
2021/07/23 12:08:00;;;;;;;36.20;28.02;;;27.80;52.90;;;;;;4764341;55;21034;-26
2021/07/23 12:13:06;;;;;;;40.83;29.48;;;27.90;53.50;;;;;;4756010;55;20999;-27
2021/07/23 12:18:08;;;;;;;34.37;27.20;;;27.90;53.90;;;;;;4790895;55;21081;-26
2021/07/23 12:23:12;;;;;;;37.60;29.27;;;27.90;54.20;;;;;;4763669;55;21002;-27
2021/07/23 12:28:14;;;;;;;33.70;27.83;;;28.00;54.90;;;;;;4762009;55;21596;-27
2021/07/23 12:33:17;;;;;;;34.35;27.60;;;28.00;55.30;;;;;;4741664;55;21608;-31
2021/07/23 12:38:21;;;;;;;34.67;27.80;;;28.00;55.80;;;;;;4823286;55;21033;-30
2021/07/23 12:43:22;;;;;;;34.50;26.92;;;28.00;56.10;;;;;;4742625;55;21058;-26
2021/07/23 12:48:24;;;;;;;35.78;27.90;;;28.00;56.40;;;;;;4737054;59;21508;-26
2021/07/23 12:53:26;;;;;;;32.25;26.87;;;28.00;56.80;;;;;;4794796;55;21037;-26
2021/07/23 12:58:38;;;;;;;34.92;25.73;;;28.10;57.30;;;;;;4747791;55;21061;-27
2021/07/23 13:03:39;;;;;;;33.05;27.17;;;28.10;57.60;;;;;;4764479;55;21580;-26
2021/07/23 13:08:42;;;;;;;33.25;28.00;;;28.10;58.00;;;;;;4735564;59;21445;-27
2021/07/23 13:13:43;;;;;;;32.58;27.35;;;28.10;55.90;;;;;;4794167;55;21503;-28
2021/07/23 13:18:44;;;;;;;34.42;29.33;;;28.10;55.50;;;;;;4737485;59;21524;-27
2021/07/23 13:23:45;;;;;;;41.25;31.65;;;28.00;53.30;;;;;;4779217;55;21497;-31
2021/07/23 13:28:46;;;;;;;45.97;34.60;;;28.00;52.40;;;;;;4743490;55;21464;-22
2021/07/23 13:33:50;;;;;;;45.28;35.17;;;28.00;52.60;;;;;;4778027;55;21051;-23
2021/07/23 13:39:42;;;;;;;41.25;32.83;;;28.00;52.00;;;;;;4775699;55;21516;-24
2021/07/23 13:44:43;;;;;;;38.20;31.67;;;28.00;50.50;;;;;;4784133;55;21496;-25
2021/07/23 13:49:44;;;;;;;37.35;31.60;;;28.00;49.90;;;;;;4739133;55;21042;-27
2021/07/23 13:54:46;;;;;;;37.05;31.48;;;27.90;49.70;;;;;;4736795;59;21019;-23
2021/07/23 13:59:47;;;;;;;40.45;34.30;;;28.00;49.70;;;;;;4780347;55;21239;-26
2021/07/23 14:04:49;;;;;;;38.33;33.33;;;27.90;49.10;;;;;;4754535;55;21013;-25
2021/07/23 14:09:49;;;;;;;38.80;32.42;;;27.90;49.40;;;;;;4738735;59;21524;-26
2021/07/23 14:14:50;;;;;;;34.95;30.65;;;27.90;49.50;;;;;;4767660;55;21057;-25
2021/07/23 14:19:51;;;;;;;37.90;31.75;;;27.80;49.70;;;;;;4768188;55;21005;-22
2021/07/23 14:24:52;;;;;;;37.15;31.92;;;27.80;50.00;;;;;;4741004;55;21109;-24
2021/07/23 14:29:55;;;;;;;37.15;32.28;;;27.80;50.10;;;;;;4744263;55;20998;-27
2021/07/23 14:34:56;;;;;;;36.85;32.17;;;27.80;50.30;;;;;;4738215;59;21481;-25
2021/07/23 14:39:57;;;;;;;37.30;30.65;;;27.80;50.40;;;;;;4739739;55;21014;-22
2021/07/23 14:44:58;;;;;;;36.17;30.45;;;27.70;50.60;;;;;;4740040;55;21026;-25
2021/07/23 14:49:59;;;;;;;38.03;31.00;;;27.70;50.70;;;;;;4803964;55;21014;-25
2021/07/23 14:54:59;;;;;;;34.10;29.63;;;27.70;50.80;;;;;;4739241;55;21018;-30
2021/07/23 15:00:02;;;;;;;32.92;29.27;;;27.70;51.00;;;;;;4741580;55;21046;-32
2021/07/23 15:05:03;;;;;;;32.70;29.15;;;27.70;51.00;;;;;;4764498;55;21029;-25
2021/07/23 15:10:04;;;;;;;36.40;30.92;;;27.70;51.20;;;;;;4736618;59;21607;-28
2021/07/23 15:15:06;;;;;;;33.92;29.65;;;27.70;51.30;;;;;;4753466;55;21009;-26
2021/07/23 15:20:09;;;;;;;35.75;29.90;;;27.60;51.20;;;;;;4755199;55;21114;-22
2021/07/23 15:25:12;;;;;;;34.45;29.77;;;27.60;51.40;;;;;;4761454;55;20998;-23
2021/07/23 15:30:13;;;;;;;31.67;28.23;;;27.60;51.40;;;;;;4746965;55;21567;-28
2021/07/23 15:35:14;;;;;;;32.50;28.58;;;27.60;51.50;;;;;;4763773;55;21026;-26
2021/07/23 15:40:16;;;;;;;32.65;29.17;;;27.60;51.60;;;;;;4779133;55;22199;-30
2021/07/23 15:45:17;;;;;;;31.10;27.75;;;27.60;51.60;;;;;;4744586;55;21563;-25
2021/07/23 15:50:20;;;;;;;32.25;28.77;;;27.60;51.70;;;;;;4762404;55;21042;-29
2021/07/23 15:55:21;;;;;;;30.75;27.55;;;27.60;51.80;;;;;;4749472;55;21077;-30
2021/07/23 16:00:22;;;;;;;33.05;28.45;;;27.60;51.80;;;;;;4737762;59;21063;-26
2021/07/23 16:05:24;;;;;;;31.15;27.77;;;27.60;51.90;;;;;;4754547;55;21026;-28
2021/07/23 16:10:25;;;;;;;32.80;28.45;;;27.60;51.90;;;;;;4757227;55;21497;-29
2021/07/23 16:15:26;;;;;;;30.85;27.52;;;27.60;52.10;;;;;;4754028;55;21033;-27
2021/07/23 16:20:27;;;;;;;30.73;27.42;;;27.60;52.00;;;;;;4754834;55;21070;-27
2021/07/23 16:25:29;;;;;;;31.98;28.42;;;27.60;52.10;;;;;;4753233;55;21113;-26
2021/07/23 16:30:30;;;;;;;31.73;28.30;;;27.60;52.10;;;;;;4780749;55;21077;-27
2021/07/23 16:35:30;;;;;;;31.98;28.67;;;27.60;52.20;;;;;;4782031;55;21093;-26
2021/07/23 16:40:31;;;;;;;32.97;28.62;;;27.60;52.30;;;;;;4737992;55;21038;-26
2021/07/23 16:45:32;;;;;;;30.55;26.80;;;27.60;52.30;;;;;;4756781;55;21097;-30
2021/07/23 16:50:34;;;;;;;32.25;28.77;;;27.60;52.30;;;;;;4768247;55;21034;-26
2021/07/23 16:55:35;;;;;;;30.70;27.50;;;27.60;52.30;;;;;;4747769;55;21020;-28
2021/07/23 17:00:36;;;;;;;30.70;27.50;;;27.60;52.30;;;;;;4760185;55;20994;-26
2021/07/23 17:05:37;;;;;;;29.75;26.65;;;27.60;53.00;;;;;;4755223;55;21509;-27
2021/07/23 17:10:43;;;;;;;30.70;27.40;;;27.60;52.40;;;;;;4746916;55;21572;-24
2021/07/23 17:15:44;;;;;;;31.02;27.70;;;27.60;52.40;;;;;;4738657;59;21563;-31
2021/07/23 17:20:45;;;;;;;31.52;28.15;;;27.50;53.00;;;;;;4737212;57;20970;-27
2021/07/23 17:25:46;;;;;;;31.40;28.08;;;27.50;52.40;;;;;;4746073;55;20998;-26
2021/07/23 17:30:47;;;;;;;30.48;27.20;;;27.50;52.40;;;;;;4747768;55;20986;-24
2021/07/23 17:35:47;;;;;;;31.02;27.83;;;27.50;52.50;;;;;;4791290;55;21008;-27
2021/07/23 17:40:49;;;;;;;30.88;27.65;;;27.60;52.50;;;;;;4762353;55;21559;-23
2021/07/23 17:51:33;;;;;;;29.48;26.17;;;27.50;52.50;;;;;;4769733;55;21141;-30
2021/07/23 17:56:34;;;;;;;29.45;26.45;;;27.50;52.50;;;;;;4764941;55;22518;-25
2021/07/23 18:01:35;;;;;;;30.15;27.08;;;27.60;52.70;;;;;;4740318;55;21021;-30
2021/07/23 18:06:36;;;;;;;30.40;27.30;;;27.60;52.60;;;;;;4747883;55;21010;-24
2021/07/23 18:11:37;;;;;;;30.00;27.00;;;27.50;52.60;;;;;;4748915;55;20998;-24
2021/07/23 18:16:38;;;;;;;28.62;25.70;;;27.50;52.60;;;;;;4740468;55;21002;-32
2021/07/23 18:21:38;;;;;;;29.08;26.17;;;27.60;52.60;;;;;;4738437;59;21026;-27
2021/07/23 18:26:39;;;;;;;30.73;27.13;;;27.50;52.60;;;;;;4737482;59;21014;-26
2021/07/23 18:31:40;;;;;;;30.25;27.13;;;27.50;52.60;;;;;;4816179;55;21400;-24
2021/07/23 18:36:41;;;;;;;29.87;26.40;;;27.50;52.60;;;;;;4737920;59;20990;-23
2021/07/23 18:41:42;;;;;;;28.58;25.60;;;27.50;52.60;;;;;;4759214;55;21009;-24
2021/07/23 18:46:42;;;;;;;27.13;24.42;;;27.50;52.60;;;;;;4743301;55;21006;-26
2021/07/23 18:51:43;;;;;;;27.58;24.67;;;27.50;52.70;;;;;;4785517;55;21505;-24
2021/07/23 18:56:44;;;;;;;28.90;25.75;;;27.60;52.70;;;;;;4752992;55;21086;-22
2021/07/23 19:01:48;;;;;;;28.00;25.10;;;27.50;52.70;;;;;;4745549;55;21022;-23
2021/07/23 19:06:50;;;;;;;27.45;24.70;;;27.50;52.70;;;;;;4738123;59;20998;-29
2021/07/23 19:11:51;;;;;;;27.65;24.67;;;27.50;52.80;;;;;;4756281;55;22379;-28
2021/07/23 19:16:52;;;;;;;28.02;25.12;;;27.50;52.80;;;;;;4758234;55;21018;-31
2021/07/23 19:21:52;;;;;;;26.00;23.40;;;27.50;52.70;;;;;;4775494;55;21001;-25
2021/07/23 19:26:53;;;;;;;27.58;24.77;;;27.50;52.80;;;;;;4742587;55;21081;-29
2021/07/23 19:31:54;;;;;;;26.58;23.90;;;27.50;52.80;;;;;;4756349;55;21001;-26
2021/07/23 19:36:55;;;;;;;28.17;25.17;;;27.50;52.80;;;;;;4758379;55;21006;-31
2021/07/23 19:41:56;;;;;;;28.45;25.55;;;27.50;52.80;;;;;;4749091;55;21021;-21
2021/07/23 19:46:57;;;;;;;26.87;24.10;;;27.50;52.90;;;;;;4759475;55;21014;-25
2021/07/23 19:51:58;;;;;;;26.30;23.60;;;27.50;52.90;;;;;;4766442;55;21656;-27
2021/07/23 19:57:02;;;;;;;25.58;22.98;;;27.50;52.90;;;;;;4789832;55;21006;-28
2021/07/23 20:02:03;;;;;;;26.37;23.67;;;27.50;52.90;;;;;;4738150;59;21552;-30
2021/07/23 20:07:04;;;;;;;26.65;23.85;;;27.50;53.00;;;;;;4750867;55;21074;-30
2021/07/23 20:12:07;;;;;;;25.37;22.50;;;27.50;53.00;;;;;;4738298;59;21017;-28
2021/07/23 20:17:08;;;;;;;26.58;23.87;;;27.50;53.00;;;;;;4755356;55;20987;-28
2021/07/23 20:22:08;;;;;;;25.30;22.65;;;27.50;53.00;;;;;;4756611;55;21054;-30
2021/07/23 20:27:09;;;;;;;25.50;23.00;;;27.50;53.00;;;;;;4788033;55;21484;-30
2021/07/23 20:32:10;;;;;;;24.95;22.30;;;27.50;53.10;;;;;;4745481;55;21006;-27
2021/07/23 20:37:11;;;;;;;25.73;23.02;;;27.50;53.10;;;;;;4738658;59;21491;-28
2021/07/23 20:42:11;;;;;;;26.05;23.30;;;27.50;53.30;;;;;;4774957;55;21002;-29
2021/07/23 20:47:12;;;;;;;24.80;22.30;;;27.50;53.10;;;;;;4749734;55;21017;-22
2021/07/23 20:52:13;;;;;;;24.20;21.67;;;27.50;53.20;;;;;;4740044;55;21030;-23
2021/07/23 20:57:14;;;;;;;24.75;22.30;;;27.50;53.10;;;;;;4751056;55;21010;-26
2021/07/23 21:02:15;;;;;;;24.85;22.25;;;27.50;53.20;;;;;;4753184;55;21489;-27
2021/07/23 21:07:16;;;;;;;24.33;21.75;;;27.50;53.20;;;;;;4782015;55;21010;-25
2021/07/23 21:12:17;;;;;;;24.45;22.05;;;27.50;53.20;;;;;;4738459;59;21010;-26
2021/07/23 21:17:18;;;;;;;24.25;21.85;;;27.40;53.80;;;;;;4737851;59;20998;-23
2021/07/23 21:22:18;;;;;;;26.10;22.10;;;27.40;53.40;;;;;;4753722;55;20998;-30
2021/07/23 21:27:19;;;;;;;23.25;20.85;;;27.40;54.00;;;;;;4775366;55;21021;-30
2021/07/23 21:32:23;;;;;;;23.33;21.02;;;27.40;53.40;;;;;;4739744;55;21077;-29
2021/07/23 21:37:25;;;;;;;22.77;20.48;;;27.50;53.40;;;;;;4749311;55;21002;-27
2021/07/23 21:42:25;;;;;;;23.42;21.02;;;27.40;53.50;;;;;;4772494;55;21038;-30
2021/07/23 21:47:26;;;;;;;23.35;20.90;;;27.40;53.30;;;;;;4749201;55;20998;-30
2021/07/23 21:52:27;;;;;;;23.08;20.67;;;27.40;53.40;;;;;;4741294;55;22027;-25
2021/07/23 21:57:28;;;;;;;23.05;20.75;;;27.50;53.30;;;;;;4750774;55;21010;-30
2021/07/23 22:02:29;;;;;;;22.15;19.95;;;27.50;53.60;;;;;;4751495;55;21073;-25
2021/07/23 22:07:35;;;;;;;23.65;21.25;;;27.40;53.40;;;;;;4751840;55;20998;-30
2021/07/23 22:12:36;;;;;;;23.40;21.08;;;27.40;53.40;;;;;;4747839;55;21532;-28
2021/07/23 22:17:37;;;;;;;22.30;20.08;;;27.40;53.50;;;;;;4738300;59;21061;-29
2021/07/23 22:22:38;;;;;;;22.80;20.50;;;27.40;53.50;;;;;;4743587;55;21010;-23
2021/07/23 22:27:39;;;;;;;22.45;20.15;;;27.50;53.80;;;;;;4743547;55;21009;-25
2021/07/23 22:32:39;;;;;;;22.23;19.83;;;27.40;54.20;;;;;;4759549;55;21595;-26
2021/07/23 22:37:40;;;;;;;21.55;19.35;;;27.40;53.50;;;;;;4745640;55;21500;-29
2021/07/23 22:42:44;;;;;;;21.25;19.17;;;27.50;53.80;;;;;;4767540;55;20994;-24
2021/07/23 22:47:45;;;;;;;21.98;19.67;;;27.40;53.70;;;;;;4764782;55;21535;-25
2021/07/23 22:52:46;;;;;;;21.35;19.17;;;27.40;53.70;;;;;;4763664;55;21037;-22
2021/07/23 22:57:47;;;;;;;21.12;19.00;;;27.40;53.80;;;;;;4767311;55;21461;-24
2021/07/23 23:02:48;;;;;;;21.12;19.02;;;27.40;53.80;;;;;;4742086;55;20974;-24
2021/07/23 23:07:49;;;;;;;21.48;19.27;;;27.40;53.70;;;;;;4738795;55;21057;-30
2021/07/23 23:12:50;;;;;;;21.55;19.35;;;27.40;53.80;;;;;;4739942;55;21497;-26
2021/07/23 23:17:51;;;;;;;21.20;19.10;;;27.40;53.70;;;;;;4740977;55;21022;-29
2021/07/23 23:22:51;;;;;;;21.27;19.17;;;27.40;53.80;;;;;;4738533;59;21002;-30
2021/07/23 23:27:52;;;;;;;22.33;20.08;;;27.40;53.70;;;;;;4741212;55;21489;-28
2021/07/23 23:32:55;;;;;;;21.35;19.25;;;27.40;53.80;;;;;;4745740;55;21030;-27
2021/07/23 23:38:00;;;;;;;19.67;17.67;;;27.50;54.00;;;;;;4748227;55;21484;-26
2021/07/23 23:43:01;;;;;;;20.67;18.57;;;27.40;53.80;;;;;;4764767;55;21488;-23
2021/07/23 23:48:02;;;;;;;20.58;18.52;;;27.40;54.00;;;;;;4748445;55;21033;-23
2021/07/23 23:53:03;;;;;;;20.48;18.37;;;27.40;53.80;;;;;;4760626;55;21023;-22
2021/07/23 23:58:08;;;;;;;21.20;19.17;;;27.40;53.90;;;;;;4738432;59;20994;-22
